createdAt,value
2023-02-16T00:01:25.261Z,39.47
2023-02-16T00:03:54.328Z,39.85
2023-02-16T00:06:23.955Z,39.05
2023-02-16T00:08:53.726Z,38.80
2023-02-16T00:11:42.680Z,39.47
2023-02-16T00:14:12.631Z,37.20
2023-02-16T00:16:40.691Z,38.53
2023-02-16T00:19:20.536Z,39.28
2023-02-16T00:21:51.085Z,38.88
2023-02-16T00:24:18.966Z,38.78
2023-02-16T00:26:47.613Z,38.63
2023-02-16T00:29:21.773Z,39.03
2023-02-16T00:31:50.429Z,41.08
2023-02-16T00:34:31.000Z,40.45
2023-02-16T00:37:02.474Z,38.50
2023-02-16T00:39:30.618Z,38.30
2023-02-16T00:42:01.310Z,39.42
2023-02-16T00:44:34.245Z,39.45
2023-02-16T00:47:05.247Z,39.07
2023-02-16T00:49:33.012Z,39.80
2023-02-16T00:52:02.630Z,38.50
2023-02-16T00:54:31.938Z,39.50
2023-02-16T00:56:59.986Z,38.17
2023-02-16T00:59:27.850Z,39.33
2023-02-16T01:01:57.385Z,38.38
2023-02-16T01:04:25.287Z,39.50
2023-02-16T01:07:10.520Z,39.10
2023-02-16T01:09:57.300Z,38.47
2023-02-16T01:12:25.160Z,37.63
2023-02-16T01:14:56.077Z,39.30
2023-02-16T01:17:25.225Z,36.95
2023-02-16T01:19:53.047Z,37.80
2023-02-16T01:22:20.791Z,38.33
2023-02-16T01:24:49.932Z,36.60
2023-02-16T01:27:17.748Z,38.08
2023-02-16T01:29:45.526Z,37.72
2023-02-16T01:32:14.096Z,40.60
2023-02-16T01:34:42.546Z,36.85
2023-02-16T01:37:15.649Z,37.75
2023-02-16T01:39:43.518Z,38.55
2023-02-16T01:42:24.228Z,37.17
2023-02-16T01:44:53.925Z,36.95
2023-02-16T01:47:36.446Z,35.42
2023-02-16T01:50:16.658Z,37.13
2023-02-16T01:52:48.750Z,37.22
2023-02-16T01:55:21.214Z,36.30
2023-02-16T01:57:53.918Z,36.28
2023-02-16T02:00:29.260Z,36.28
2023-02-16T02:03:19.585Z,36.63
2023-02-16T02:05:47.243Z,36.90
2023-02-16T02:08:22.144Z,36.10
2023-02-16T02:11:02.390Z,37.20
2023-02-16T02:13:41.069Z,37.03
2023-02-16T02:16:09.727Z,35.75
2023-02-16T02:18:37.556Z,34.90
2023-02-16T02:21:54.342Z,36.05
2023-02-16T02:24:51.655Z,34.92
2023-02-16T02:27:25.212Z,35.83
2023-02-16T02:30:17.534Z,35.25
2023-02-16T02:33:02.433Z,34.97
2023-02-16T02:35:42.504Z,34.45
2023-02-16T02:38:16.474Z,33.47
2023-02-16T02:40:55.749Z,35.60
2023-02-16T02:43:35.549Z,33.97
2023-02-16T02:46:08.782Z,33.67
2023-02-16T02:48:36.650Z,35.85
2023-02-16T02:51:22.662Z,34.83
2023-02-16T02:54:14.741Z,34.35
2023-02-16T02:57:04.835Z,36.10
2023-02-16T02:59:54.381Z,34.60
2023-02-16T03:02:25.718Z,34.50
2023-02-16T03:04:54.952Z,34.65
2023-02-16T03:07:44.958Z,34.90
2023-02-16T03:10:26.853Z,34.20
2023-02-16T03:12:55.144Z,35.95
2023-02-16T03:15:26.192Z,32.63
2023-02-16T03:18:15.815Z,33.47
2023-02-16T03:21:02.897Z,35.15
2023-02-16T03:23:48.826Z,36.63
2023-02-16T03:26:35.025Z,34.72
2023-02-16T03:29:22.741Z,34.58
2023-02-16T03:31:54.600Z,34.40
2023-02-16T03:34:23.254Z,34.67
2023-02-16T03:36:58.445Z,35.05
2023-02-16T03:39:27.249Z,35.80
2023-02-16T03:41:57.143Z,35.20
2023-02-16T03:44:25.782Z,36.30
2023-02-16T03:46:54.924Z,36.40
2023-02-16T03:49:22.779Z,36.90
2023-02-16T03:51:50.495Z,35.90
2023-02-16T03:54:18.226Z,36.03
2023-02-16T03:56:45.950Z,36.08
2023-02-16T03:59:13.778Z,35.45
2023-02-16T04:01:41.623Z,34.53
2023-02-16T04:04:10.891Z,35.30
2023-02-16T04:06:38.676Z,34.95
2023-02-16T04:09:06.455Z,36.45
2023-02-16T04:11:51.722Z,36.33
2023-02-16T04:14:19.507Z,35.95
2023-02-16T04:16:47.282Z,34.97
2023-02-16T04:19:16.479Z,35.38
2023-02-16T04:21:44.213Z,35.15
2023-02-16T04:24:11.987Z,34.92
2023-02-16T04:26:39.772Z,36.20
2023-02-16T04:29:07.490Z,37.97
2023-02-16T04:31:35.415Z,34.63
2023-02-16T04:34:03.288Z,35.65
2023-02-16T04:36:32.661Z,35.10
2023-02-16T04:39:00.459Z,38.28
2023-02-16T04:41:28.194Z,35.88
2023-02-16T04:43:55.995Z,35.45
2023-02-16T04:46:23.917Z,35.35
2023-02-16T04:48:51.793Z,37.35
2023-02-16T04:51:19.597Z,34.92
2023-02-16T04:53:48.817Z,35.65
2023-02-16T04:56:16.649Z,36.28
2023-02-16T04:58:44.421Z,35.80
2023-02-16T05:01:19.678Z,37.75
2023-02-16T05:03:47.717Z,35.85
2023-02-16T05:06:15.685Z,35.53
2023-02-16T05:08:43.798Z,36.90
2023-02-16T05:11:31.006Z,37.05
2023-02-16T05:14:16.342Z,37.40
2023-02-16T05:16:44.254Z,34.72
2023-02-16T05:19:12.749Z,37.40
2023-02-16T05:21:40.491Z,36.67
2023-02-16T05:24:10.065Z,36.40
2023-02-16T05:26:40.320Z,37.28
2023-02-16T05:29:08.119Z,36.83
2023-02-16T05:31:35.998Z,35.90
2023-02-16T05:34:03.908Z,36.25
2023-02-16T05:36:31.720Z,36.60
2023-02-16T05:39:00.203Z,37.25
2023-02-16T05:41:27.969Z,38.22
2023-02-16T05:44:00.133Z,37.17
2023-02-16T05:46:30.493Z,40.20
2023-02-16T05:48:58.271Z,39.05
2023-02-16T05:51:26.108Z,37.47
2023-02-16T05:53:54.155Z,38.25
2023-02-16T05:56:22.363Z,36.53
2023-02-16T05:58:50.422Z,42.78
2023-02-16T06:01:19.750Z,38.08
2023-02-16T06:03:47.816Z,36.05
2023-02-16T06:06:15.739Z,38.88
2023-02-16T06:08:43.513Z,41.17
2023-02-16T06:11:32.307Z,37.80
2023-02-16T06:14:01.704Z,40.40
2023-02-16T06:16:31.904Z,43.17
2023-02-16T06:19:00.393Z,40.47
2023-02-16T06:21:28.974Z,43.55
2023-02-16T06:23:56.946Z,40.13
2023-02-16T06:26:24.978Z,39.50
2023-02-16T06:28:53.093Z,51.95
2023-02-16T06:31:21.524Z,39.42
2023-02-16T06:33:50.803Z,38.35
2023-02-16T06:36:19.435Z,39.05
2023-02-16T06:38:47.571Z,39.22
2023-02-16T06:41:31.111Z,40.95
2023-02-16T06:44:00.176Z,40.20
2023-02-16T06:46:28.088Z,39.50
2023-02-16T06:48:57.417Z,40.05
2023-02-16T06:51:25.694Z,37.90
2023-02-16T06:53:53.810Z,37.83
2023-02-16T06:56:21.774Z,38.20
2023-02-16T06:58:49.615Z,37.97
2023-02-16T07:01:22.822Z,39.33
2023-02-16T07:03:51.609Z,37.90
2023-02-16T07:06:21.421Z,36.92
2023-02-16T07:08:49.232Z,40.13
2023-02-16T07:11:18.211Z,39.22
2023-02-16T07:13:46.321Z,39.05
2023-02-16T07:16:15.498Z,38.53
2023-02-16T07:18:43.642Z,41.38
2023-02-16T07:21:11.572Z,39.72
2023-02-16T07:23:40.758Z,39.97
2023-02-16T07:26:08.645Z,39.78
2023-02-16T07:28:36.654Z,38.83
2023-02-16T07:31:09.181Z,41.88
2023-02-16T07:33:37.060Z,40.33
2023-02-16T07:36:05.551Z,40.42
2023-02-16T07:38:33.304Z,40.40
2023-02-16T07:41:03.220Z,41.67
2023-02-16T07:43:31.306Z,40.53
2023-02-16T07:45:59.053Z,40.20
2023-02-16T07:48:26.825Z,40.17
2023-02-16T07:50:54.854Z,39.95
2023-02-16T07:53:22.593Z,46.58
2023-02-16T07:55:50.349Z,41.28
2023-02-16T07:58:28.227Z,39.50
2023-02-16T08:00:57.126Z,39.97
2023-02-16T08:03:25.061Z,40.70
2023-02-16T08:05:52.976Z,38.05
2023-02-16T08:08:20.751Z,38.95
2023-02-16T08:10:48.535Z,38.08
2023-02-16T08:13:16.275Z,37.28
2023-02-16T08:15:45.640Z,38.35
2023-02-16T08:18:13.690Z,38.85
2023-02-16T08:21:01.517Z,37.35
2023-02-16T08:23:31.443Z,38.13
2023-02-16T08:25:59.657Z,38.15
2023-02-16T08:28:28.455Z,39.60
2023-02-16T08:30:57.844Z,42.45
2023-02-16T08:33:25.617Z,39.20
2023-02-16T08:35:53.414Z,38.67
2023-02-16T08:38:22.816Z,39.90
2023-02-16T08:40:51.300Z,39.75
2023-02-16T08:43:19.290Z,38.08
2023-02-16T08:45:48.537Z,44.30
2023-02-16T08:48:17.886Z,43.00
2023-02-16T08:50:53.368Z,41.97
2023-02-16T08:53:21.687Z,41.83
2023-02-16T08:55:53.327Z,43.35
2023-02-16T08:58:21.220Z,48.92
2023-02-16T09:00:49.781Z,41.97
2023-02-16T09:03:19.780Z,43.15
2023-02-16T09:05:48.119Z,43.25
2023-02-16T09:08:16.276Z,42.17
2023-02-16T09:10:44.516Z,42.13
2023-02-16T09:13:14.932Z,43.92
2023-02-16T09:15:43.214Z,42.83
2023-02-16T09:18:12.512Z,42.33
2023-02-16T09:20:46.402Z,45.28
2023-02-16T09:23:14.737Z,44.65
2023-02-16T09:25:42.542Z,44.55
2023-02-16T09:28:11.597Z,44.50
2023-02-16T09:30:40.133Z,44.70
2023-02-16T09:33:07.989Z,43.88
2023-02-16T09:35:38.194Z,44.95
2023-02-16T09:38:07.970Z,43.40
2023-02-16T09:40:37.683Z,46.20
2023-02-16T09:43:15.383Z,45.45
2023-02-16T09:45:47.641Z,45.58
2023-02-16T09:48:25.301Z,47.17
2023-02-16T09:50:55.353Z,45.75
2023-02-16T09:53:35.115Z,45.20
2023-02-16T09:56:17.267Z,45.47
2023-02-16T09:58:50.445Z,43.65
2023-02-16T10:01:24.891Z,45.25
2023-02-16T10:04:02.033Z,45.67
2023-02-16T10:06:40.419Z,44.42
2023-02-16T10:09:16.368Z,44.47
2023-02-16T10:11:49.592Z,42.90
2023-02-16T10:14:25.961Z,43.50
2023-02-16T10:16:58.575Z,41.50
2023-02-16T10:19:31.473Z,43.17
2023-02-16T10:22:04.782Z,42.63
2023-02-16T10:24:45.245Z,42.13
2023-02-16T10:27:17.347Z,42.78
2023-02-16T10:29:45.244Z,42.60
2023-02-16T10:32:29.308Z,43.30
2023-02-16T10:37:41.863Z,42.72
2023-02-16T10:40:23.540Z,42.05
2023-02-16T10:42:58.387Z,43.17
2023-02-16T10:45:31.948Z,41.97
2023-02-16T10:48:01.259Z,41.47
2023-02-16T10:50:33.086Z,40.33
2023-02-16T10:53:05.424Z,40.17
2023-02-16T10:55:34.587Z,40.22
2023-02-16T10:58:03.292Z,40.28
2023-02-16T11:00:44.183Z,42.20
2023-02-16T11:03:15.502Z,42.67
2023-02-16T11:05:43.620Z,41.05
2023-02-16T11:08:12.992Z,39.58
2023-02-16T11:10:50.449Z,42.10
2023-02-16T11:13:25.246Z,41.00
2023-02-16T11:15:55.971Z,40.22
2023-02-16T11:18:34.960Z,40.67
2023-02-16T11:21:04.140Z,40.35
2023-02-16T11:23:33.539Z,42.53
2023-02-16T11:26:05.694Z,40.72
2023-02-16T11:28:37.103Z,40.03
2023-02-16T11:31:13.779Z,40.40
2023-02-16T11:33:44.092Z,40.10
2023-02-16T11:36:25.640Z,39.72
2023-02-16T11:39:02.322Z,37.53
2023-02-16T11:41:33.485Z,36.38
2023-02-16T11:44:03.624Z,37.25
2023-02-16T11:46:40.916Z,38.72
2023-02-16T11:49:33.836Z,37.42
2023-02-16T11:52:02.085Z,39.67
2023-02-16T11:54:29.832Z,38.22
2023-02-16T11:57:09.453Z,39.97
2023-02-16T11:59:39.102Z,38.38
2023-02-16T12:02:36.855Z,39.70
2023-02-16T12:05:24.613Z,37.95
2023-02-16T12:08:19.096Z,37.95
2023-02-16T12:13:34.023Z,36.10
2023-02-16T12:16:14.147Z,34.78
2023-02-16T12:19:00.203Z,32.72
2023-02-16T12:21:39.001Z,33.47
2023-02-16T12:24:18.254Z,30.50
2023-02-16T12:26:51.924Z,29.00
2023-02-16T12:29:38.001Z,33.97
2023-02-16T12:32:30.200Z,32.10
2023-02-16T12:35:13.281Z,33.95
2023-02-16T12:37:47.155Z,30.75
2023-02-16T12:43:01.930Z,29.00
2023-02-16T12:45:35.525Z,31.20
2023-02-16T12:48:15.126Z,30.30
2023-02-16T12:50:44.524Z,27.20
2023-02-16T12:53:22.024Z,29.13
2023-02-16T12:55:55.299Z,27.77
2023-02-16T12:58:26.809Z,27.52
2023-02-16T13:01:01.079Z,26.05
2023-02-16T13:03:37.168Z,28.67
2023-02-16T13:06:15.740Z,27.23
2023-02-16T13:08:49.539Z,28.38
2023-02-16T13:13:51.098Z,26.88
2023-02-16T13:16:30.675Z,28.38
2023-02-16T13:18:58.830Z,27.38
2023-02-16T13:21:51.206Z,25.55
2023-02-16T13:24:32.336Z,23.33
2023-02-16T13:27:13.123Z,21.73
2023-02-16T13:30:01.371Z,20.63
2023-02-16T13:32:57.918Z,17.95
2023-02-16T13:35:53.866Z,16.60
2023-02-16T13:38:37.727Z,16.05
2023-02-16T13:41:21.700Z,17.33
2023-02-16T13:43:53.423Z,15.38
2023-02-16T13:46:28.473Z,15.63
2023-02-16T13:48:58.404Z,16.02
2023-02-16T13:51:30.994Z,15.70
2023-02-16T13:54:01.546Z,17.52
2023-02-16T13:56:36.270Z,17.02
2023-02-16T13:59:41.313Z,16.60
2023-02-16T14:02:12.516Z,17.63
2023-02-16T14:05:11.884Z,14.93
2023-02-16T14:07:40.007Z,15.25
2023-02-16T14:10:13.918Z,14.25
2023-02-16T14:12:42.268Z,14.45
2023-02-16T14:15:19.907Z,15.82
2023-02-16T14:17:47.937Z,15.90
2023-02-16T14:20:31.254Z,16.90
2023-02-16T14:23:01.068Z,17.08
2023-02-16T14:25:36.768Z,16.42
2023-02-16T14:28:06.963Z,17.17
2023-02-16T14:30:38.076Z,17.35
2023-02-16T14:33:17.636Z,18.35
2023-02-16T14:36:04.234Z,18.33
2023-02-16T14:38:35.951Z,16.65
2023-02-16T14:41:08.061Z,18.05
2023-02-16T14:43:41.397Z,17.90
2023-02-16T14:46:26.097Z,18.33
2023-02-16T14:49:25.897Z,18.50
2023-02-16T14:52:35.979Z,16.42
2023-02-16T14:55:28.701Z,17.95
2023-02-16T14:58:02.565Z,18.50
2023-02-16T15:03:18.650Z,18.92
2023-02-16T15:05:52.568Z,19.70
2023-02-16T15:10:54.249Z,19.77
2023-02-16T15:13:23.722Z,20.83
2023-02-16T15:15:56.008Z,20.20
2023-02-16T15:18:26.284Z,20.80
2023-02-16T15:20:57.406Z,19.95
2023-02-16T15:23:29.006Z,21.05
2023-02-16T15:25:59.978Z,19.80
2023-02-16T15:28:30.907Z,20.92
2023-02-16T15:31:01.168Z,21.25
2023-02-16T15:33:36.374Z,19.27
2023-02-16T15:36:08.037Z,20.55
2023-02-16T15:38:39.683Z,20.83
2023-02-16T15:41:11.093Z,20.48
2023-02-16T15:43:44.999Z,19.52
2023-02-16T15:46:24.285Z,21.02
2023-02-16T15:48:52.096Z,27.08
2023-02-16T15:51:25.281Z,20.55
2023-02-16T15:53:57.364Z,20.00
2023-02-16T15:56:44.271Z,20.65
2023-02-16T15:59:35.729Z,20.63
2023-02-16T16:02:12.013Z,21.48
2023-02-16T16:04:42.392Z,19.92
2023-02-16T16:07:16.201Z,21.98
2023-02-16T16:12:17.219Z,20.67
2023-02-16T16:14:51.593Z,21.13
2023-02-16T16:17:24.654Z,20.33
2023-02-16T16:19:52.528Z,24.33
2023-02-16T16:22:35.222Z,21.90
2023-02-16T16:25:24.599Z,24.50
2023-02-16T16:27:52.365Z,22.85
2023-02-16T16:30:28.758Z,22.05
2023-02-16T16:33:04.533Z,22.98
2023-02-16T16:35:40.136Z,23.15
2023-02-16T16:38:21.542Z,22.73
2023-02-16T16:40:55.194Z,22.83
2023-02-16T16:43:27.811Z,23.95
2023-02-16T16:45:58.822Z,24.23
2023-02-16T16:48:30.438Z,23.90
2023-02-16T16:51:12.528Z,23.85
2023-02-16T16:53:55.592Z,24.50
2023-02-16T16:56:25.588Z,24.40
2023-02-16T16:58:56.850Z,24.65
2023-02-16T17:01:25.797Z,23.90
2023-02-16T17:03:53.725Z,25.67
2023-02-16T17:06:22.632Z,29.58
2023-02-16T17:08:50.649Z,26.75
2023-02-16T17:11:25.380Z,25.40
2023-02-16T17:13:54.806Z,24.83
2023-02-16T17:16:25.689Z,34.90
2023-02-16T17:18:53.455Z,32.88
2023-02-16T17:21:21.464Z,26.50
2023-02-16T17:23:53.223Z,27.23
2023-02-16T17:26:21.794Z,25.65
2023-02-16T17:28:51.536Z,26.75
2023-02-16T17:31:19.428Z,25.98
2023-02-16T17:33:47.179Z,26.17
2023-02-16T17:36:16.810Z,25.83
2023-02-16T17:38:44.891Z,25.83
2023-02-16T17:41:20.973Z,25.15
2023-02-16T17:43:50.618Z,25.42
2023-02-16T17:46:19.074Z,25.27
2023-02-16T17:48:50.459Z,26.13
2023-02-16T17:51:20.455Z,25.13
2023-02-16T17:53:48.322Z,27.20
2023-02-16T17:56:17.499Z,25.75
2023-02-16T17:58:45.652Z,24.98
2023-02-16T18:01:17.227Z,25.00
2023-02-16T18:03:45.378Z,24.85
2023-02-16T18:06:14.813Z,24.08
2023-02-16T18:08:42.843Z,26.40
2023-02-16T18:11:10.678Z,24.73
2023-02-16T18:13:38.941Z,23.80
2023-02-16T18:16:08.576Z,24.17
2023-02-16T18:18:39.331Z,22.55
2023-02-16T18:21:08.085Z,21.00
2023-02-16T18:23:35.879Z,21.50
2023-02-16T18:26:04.193Z,20.73
2023-02-16T18:28:34.278Z,19.77
2023-02-16T18:31:02.974Z,20.58
2023-02-16T18:33:30.800Z,20.15
2023-02-16T18:35:59.912Z,18.75
2023-02-16T18:38:28.010Z,20.10
2023-02-16T18:40:56.352Z,21.30
2023-02-16T18:43:24.863Z,18.23
2023-02-16T18:45:52.812Z,18.40
2023-02-16T18:48:21.696Z,17.30
2023-02-16T18:50:49.618Z,18.13
2023-02-16T18:53:18.747Z,17.33
2023-02-16T18:55:46.566Z,17.80
2023-02-16T18:58:15.101Z,15.32
2023-02-16T19:00:43.051Z,15.35
2023-02-16T19:03:11.076Z,15.60
2023-02-16T19:05:38.897Z,14.68
2023-02-16T19:08:06.742Z,15.00
2023-02-16T19:10:35.951Z,13.35
2023-02-16T19:13:05.176Z,13.20
2023-02-16T19:15:33.322Z,13.77
2023-02-16T19:18:01.171Z,13.70
2023-02-16T19:20:29.749Z,26.23
2023-02-16T19:22:57.629Z,12.77
2023-02-16T19:25:26.853Z,12.85
2023-02-16T19:27:56.215Z,13.07
2023-02-16T19:30:24.633Z,14.02
2023-02-16T19:32:52.775Z,12.85
2023-02-16T19:35:20.717Z,13.48
2023-02-16T19:37:48.532Z,13.35
2023-02-16T19:40:16.863Z,13.43
2023-02-16T19:42:44.664Z,15.50
2023-02-16T19:45:14.213Z,12.80
2023-02-16T19:47:42.054Z,13.25
2023-02-16T19:50:10.417Z,13.35
2023-02-16T19:52:38.177Z,13.40
2023-02-16T19:55:06.335Z,13.02
2023-02-16T19:57:34.614Z,13.30
2023-02-16T20:00:04.068Z,12.48
2023-02-16T20:02:33.910Z,13.02
2023-02-16T20:05:01.739Z,13.68
2023-02-16T20:07:29.520Z,12.60
2023-02-16T20:09:57.371Z,17.70
2023-02-16T20:12:28.392Z,13.40
2023-02-16T20:14:56.686Z,12.82
2023-02-16T20:17:24.461Z,13.38
2023-02-16T20:19:53.643Z,12.98
2023-02-16T20:22:21.445Z,13.10
2023-02-16T20:24:49.212Z,12.20
2023-02-16T20:27:17.069Z,12.18
2023-02-16T20:29:44.870Z,11.60
2023-02-16T20:32:12.775Z,12.57
2023-02-16T20:34:40.634Z,11.35
2023-02-16T20:37:09.798Z,14.30
2023-02-16T20:39:37.610Z,13.07
2023-02-16T20:42:05.586Z,13.23
2023-02-16T20:44:33.432Z,11.23
2023-02-16T20:47:01.288Z,11.30
2023-02-16T20:49:29.130Z,10.07
2023-02-16T20:51:57.011Z,10.25
2023-02-16T20:54:26.542Z,10.20
2023-02-16T20:56:54.329Z,10.05
2023-02-16T20:59:22.126Z,10.05
2023-02-16T21:01:52.372Z,9.55
2023-02-16T21:04:20.754Z,9.27
2023-02-16T21:06:48.760Z,8.75
2023-02-16T21:09:17.175Z,8.75
2023-02-16T21:11:46.311Z,9.32
2023-02-16T21:14:14.465Z,8.40
2023-02-16T21:16:42.515Z,8.73
2023-02-16T21:19:21.199Z,8.30
2023-02-16T21:21:50.551Z,8.32
2023-02-16T21:24:18.362Z,9.35
2023-02-16T21:26:47.473Z,9.15
2023-02-16T21:29:15.265Z,8.68
2023-02-16T21:31:43.080Z,8.85
2023-02-16T21:34:10.927Z,8.18
2023-02-16T21:36:38.921Z,8.40
2023-02-16T21:39:06.868Z,8.13
2023-02-16T21:41:33.660Z,8.13
2023-02-16T21:44:04.941Z,8.40
2023-02-16T21:46:34.856Z,8.30
2023-02-16T21:49:02.372Z,7.65
2023-02-16T21:51:32.101Z,9.02
2023-02-16T21:54:00.718Z,8.43
2023-02-16T21:56:33.138Z,10.07
2023-02-16T21:59:02.487Z,9.15
2023-02-16T22:01:31.635Z,9.70
2023-02-16T22:04:00.785Z,10.50
2023-02-16T22:06:32.140Z,11.23
2023-02-16T22:09:00.287Z,11.30
2023-02-16T22:11:28.535Z,12.18
2023-02-16T22:13:57.315Z,12.77
2023-02-16T22:16:28.319Z,12.85
2023-02-16T22:19:00.553Z,12.27
2023-02-16T22:21:29.377Z,13.18
2023-02-16T22:23:58.205Z,13.20
2023-02-16T22:26:29.447Z,12.60
2023-02-16T22:28:57.242Z,12.65
2023-02-16T22:31:28.215Z,12.00
2023-02-16T22:33:56.842Z,12.60
2023-02-16T22:36:24.948Z,12.15
2023-02-16T22:38:54.660Z,11.73
2023-02-16T22:41:23.055Z,11.32
2023-02-16T22:43:54.193Z,11.52
2023-02-16T22:46:22.581Z,10.98
2023-02-16T22:48:52.420Z,11.27
2023-02-16T22:51:22.169Z,12.55
2023-02-16T22:53:50.117Z,13.50
2023-02-16T22:56:19.158Z,13.88
2023-02-16T22:58:47.460Z,14.70
2023-02-16T23:01:17.404Z,14.80
2023-02-16T23:03:47.450Z,15.20
2023-02-16T23:06:19.240Z,15.32
2023-02-16T23:08:48.388Z,16.95
2023-02-16T23:11:16.158Z,16.67
2023-02-16T23:13:43.924Z,16.30
2023-02-16T23:16:13.724Z,18.20
2023-02-16T23:18:42.049Z,17.05
2023-02-16T23:21:12.598Z,17.50
2023-02-16T23:23:42.043Z,16.90
2023-02-16T23:26:10.701Z,17.95
2023-02-16T23:28:41.050Z,17.85
2023-02-16T23:31:09.565Z,17.75
2023-02-16T23:33:37.433Z,17.33
2023-02-16T23:36:06.217Z,18.58
2023-02-16T23:38:34.431Z,16.65
2023-02-16T23:41:06.282Z,17.17
2023-02-16T23:43:34.124Z,16.70
2023-02-16T23:46:02.862Z,17.20
2023-02-16T23:48:31.467Z,15.70
2023-02-16T23:50:59.979Z,16.90
2023-02-16T23:53:28.963Z,16.30
2023-02-16T23:56:00.811Z,15.07
2023-02-16T23:58:31.878Z,14.13
